sensor_id;sensor_type;location;lat;lon;timestamp;P1;durP1;ratioP1;P2;durP2;ratioP2
8958;SDS011;4514;49.476;8.484;2022-08-19T00:01:54;18.23;;;16.70;;
8958;SDS011;4514;49.476;8.484;2022-08-19T00:04:21;19.10;;;17.50;;
8958;SDS011;4514;49.476;8.484;2022-08-19T00:06:52;17.50;;;15.90;;
8958;SDS011;4514;49.476;8.484;2022-08-19T00:09:22;19.00;;;17.15;;
8958;SDS011;4514;49.476;8.484;2022-08-19T00:11:48;18.40;;;16.75;;
8958;SDS011;4514;49.476;8.484;2022-08-19T00:14:15;17.73;;;16.13;;
8958;SDS011;4514;49.476;8.484;2022-08-19T00:16:45;18.50;;;16.80;;
8958;SDS011;4514;49.476;8.484;2022-08-19T00:19:13;19.17;;;17.40;;
8958;SDS011;4514;49.476;8.484;2022-08-19T00:21:42;18.08;;;16.55;;
8958;SDS011;4514;49.476;8.484;2022-08-19T00:24:08;19.38;;;17.50;;
8958;SDS011;4514;49.476;8.484;2022-08-19T00:26:35;19.85;;;17.95;;
8958;SDS011;4514;49.476;8.484;2022-08-19T00:29:03;19.10;;;17.48;;
8958;SDS011;4514;49.476;8.484;2022-08-19T00:31:35;18.42;;;16.92;;
8958;SDS011;4514;49.476;8.484;2022-08-19T00:34:00;18.75;;;17.17;;
8958;SDS011;4514;49.476;8.484;2022-08-19T00:36:26;19.33;;;17.70;;
8958;SDS011;4514;49.476;8.484;2022-08-19T00:38:53;19.13;;;17.42;;
8958;SDS011;4514;49.476;8.484;2022-08-19T00:41:24;19.00;;;17.13;;
8958;SDS011;4514;49.476;8.484;2022-08-19T00:44:06;18.42;;;16.70;;
8958;SDS011;4514;49.476;8.484;2022-08-19T00:46:38;18.73;;;16.83;;
8958;SDS011;4514;49.476;8.484;2022-08-19T00:49:14;18.55;;;16.75;;
8958;SDS011;4514;49.476;8.484;2022-08-19T00:51:43;17.92;;;16.38;;
8958;SDS011;4514;49.476;8.484;2022-08-19T00:54:10;19.48;;;17.77;;
8958;SDS011;4514;49.476;8.484;2022-08-19T00:56:36;19.52;;;17.63;;
8958;SDS011;4514;49.476;8.484;2022-08-19T00:59:05;18.98;;;17.17;;
8958;SDS011;4514;49.476;8.484;2022-08-19T01:01:37;18.93;;;17.33;;
8958;SDS011;4514;49.476;8.484;2022-08-19T01:04:07;19.83;;;18.10;;
8958;SDS011;4514;49.476;8.484;2022-08-19T01:06:32;18.63;;;17.13;;
8958;SDS011;4514;49.476;8.484;2022-08-19T01:09:03;19.27;;;17.45;;
8958;SDS011;4514;49.476;8.484;2022-08-19T01:11:30;19.45;;;17.42;;
8958;SDS011;4514;49.476;8.484;2022-08-19T01:13:56;18.58;;;16.95;;
8958;SDS011;4514;49.476;8.484;2022-08-19T01:16:25;18.48;;;16.98;;
8958;SDS011;4514;49.476;8.484;2022-08-19T01:18:54;17.02;;;15.63;;
8958;SDS011;4514;49.476;8.484;2022-08-19T01:21:37;18.52;;;17.00;;
8958;SDS011;4514;49.476;8.484;2022-08-19T01:24:11;19.33;;;17.63;;
8958;SDS011;4514;49.476;8.484;2022-08-19T01:26:40;19.15;;;17.45;;
8958;SDS011;4514;49.476;8.484;2022-08-19T01:29:09;19.23;;;17.52;;
8958;SDS011;4514;49.476;8.484;2022-08-19T01:31:35;18.60;;;17.05;;
8958;SDS011;4514;49.476;8.484;2022-08-19T01:34:02;18.77;;;17.20;;
8958;SDS011;4514;49.476;8.484;2022-08-19T01:38:56;18.50;;;16.90;;
8958;SDS011;4514;49.476;8.484;2022-08-19T01:41:29;19.17;;;17.58;;
8958;SDS011;4514;49.476;8.484;2022-08-19T01:43:56;18.67;;;17.20;;
8958;SDS011;4514;49.476;8.484;2022-08-19T01:46:26;20.38;;;18.58;;
8958;SDS011;4514;49.476;8.484;2022-08-19T01:48:51;19.67;;;17.98;;
8958;SDS011;4514;49.476;8.484;2022-08-19T01:51:19;18.65;;;17.10;;
8958;SDS011;4514;49.476;8.484;2022-08-19T01:53:47;20.95;;;19.25;;
8958;SDS011;4514;49.476;8.484;2022-08-19T01:56:15;19.25;;;17.55;;
8958;SDS011;4514;49.476;8.484;2022-08-19T01:58:43;19.42;;;17.73;;
8958;SDS011;4514;49.476;8.484;2022-08-19T02:01:11;20.35;;;18.65;;
8958;SDS011;4514;49.476;8.484;2022-08-19T02:03:37;21.83;;;20.03;;
8958;SDS011;4514;49.476;8.484;2022-08-19T02:06:05;21.50;;;19.52;;
8958;SDS011;4514;49.476;8.484;2022-08-19T02:08:34;19.17;;;17.42;;
8958;SDS011;4514;49.476;8.484;2022-08-19T02:11:01;18.02;;;16.45;;
8958;SDS011;4514;49.476;8.484;2022-08-19T02:13:29;19.73;;;18.05;;
8958;SDS011;4514;49.476;8.484;2022-08-19T02:15:54;19.90;;;18.20;;
8958;SDS011;4514;49.476;8.484;2022-08-19T02:18:22;21.90;;;19.95;;
8958;SDS011;4514;49.476;8.484;2022-08-19T02:20:51;19.98;;;18.33;;
8958;SDS011;4514;49.476;8.484;2022-08-19T02:23:17;21.23;;;19.27;;
8958;SDS011;4514;49.476;8.484;2022-08-19T02:25:46;20.75;;;18.95;;
8958;SDS011;4514;49.476;8.484;2022-08-19T02:28:12;20.10;;;18.38;;
8958;SDS011;4514;49.476;8.484;2022-08-19T02:30:38;22.17;;;20.17;;
8958;SDS011;4514;49.476;8.484;2022-08-19T02:33:08;21.92;;;19.92;;
8958;SDS011;4514;49.476;8.484;2022-08-19T02:35:33;20.63;;;18.83;;
8958;SDS011;4514;49.476;8.484;2022-08-19T02:38:01;21.23;;;19.23;;
8958;SDS011;4514;49.476;8.484;2022-08-19T02:40:49;20.27;;;18.58;;
8958;SDS011;4514;49.476;8.484;2022-08-19T02:43:16;20.73;;;18.77;;
8958;SDS011;4514;49.476;8.484;2022-08-19T02:45:44;20.73;;;18.85;;
8958;SDS011;4514;49.476;8.484;2022-08-19T02:48:10;21.25;;;19.27;;
8958;SDS011;4514;49.476;8.484;2022-08-19T02:50:39;20.83;;;19.02;;
8958;SDS011;4514;49.476;8.484;2022-08-19T02:53:06;19.35;;;17.75;;
8958;SDS011;4514;49.476;8.484;2022-08-19T02:55:33;22.00;;;19.90;;
8958;SDS011;4514;49.476;8.484;2022-08-19T02:57:59;21.58;;;19.52;;
8958;SDS011;4514;49.476;8.484;2022-08-19T03:00:25;20.27;;;18.50;;
8958;SDS011;4514;49.476;8.484;2022-08-19T03:02:51;20.63;;;18.85;;
8958;SDS011;4514;49.476;8.484;2022-08-19T03:05:17;20.35;;;18.65;;
8958;SDS011;4514;49.476;8.484;2022-08-19T03:07:44;20.02;;;18.25;;
8958;SDS011;4514;49.476;8.484;2022-08-19T03:10:11;23.13;;;21.25;;
8958;SDS011;4514;49.476;8.484;2022-08-19T03:12:37;22.92;;;20.92;;
8958;SDS011;4514;49.476;8.484;2022-08-19T03:15:06;22.27;;;20.23;;
8958;SDS011;4514;49.476;8.484;2022-08-19T03:17:33;23.35;;;21.23;;
8958;SDS011;4514;49.476;8.484;2022-08-19T03:20:03;23.00;;;21.10;;
8958;SDS011;4514;49.476;8.484;2022-08-19T03:22:34;22.98;;;20.88;;
8958;SDS011;4514;49.476;8.484;2022-08-19T03:24:59;22.10;;;20.20;;
8958;SDS011;4514;49.476;8.484;2022-08-19T03:27:25;23.20;;;21.15;;
8958;SDS011;4514;49.476;8.484;2022-08-19T03:29:50;19.80;;;18.05;;
8958;SDS011;4514;49.476;8.484;2022-08-19T03:32:16;21.65;;;19.85;;
8958;SDS011;4514;49.476;8.484;2022-08-19T03:34:44;21.33;;;19.52;;
8958;SDS011;4514;49.476;8.484;2022-08-19T03:37:14;21.67;;;19.77;;
8958;SDS011;4514;49.476;8.484;2022-08-19T03:39:40;20.70;;;19.00;;
8958;SDS011;4514;49.476;8.484;2022-08-19T03:42:05;21.08;;;19.13;;
8958;SDS011;4514;49.476;8.484;2022-08-19T03:44:34;20.00;;;18.20;;
8958;SDS011;4514;49.476;8.484;2022-08-19T03:47:01;22.13;;;20.13;;
8958;SDS011;4514;49.476;8.484;2022-08-19T03:49:27;23.57;;;21.47;;
8958;SDS011;4514;49.476;8.484;2022-08-19T03:51:54;20.23;;;18.23;;
8958;SDS011;4514;49.476;8.484;2022-08-19T03:54:22;20.10;;;18.40;;
8958;SDS011;4514;49.476;8.484;2022-08-19T03:56:54;19.10;;;17.40;;
8958;SDS011;4514;49.476;8.484;2022-08-19T03:59:27;21.63;;;19.52;;
8958;SDS011;4514;49.476;8.484;2022-08-19T04:01:57;20.80;;;19.10;;
8958;SDS011;4514;49.476;8.484;2022-08-19T04:04:26;20.80;;;19.10;;
8958;SDS011;4514;49.476;8.484;2022-08-19T04:07:01;21.38;;;19.48;;
8958;SDS011;4514;49.476;8.484;2022-08-19T04:09:27;21.58;;;19.65;;
8958;SDS011;4514;49.476;8.484;2022-08-19T04:11:53;20.48;;;18.67;;
8958;SDS011;4514;49.476;8.484;2022-08-19T04:14:20;21.27;;;19.38;;
8958;SDS011;4514;49.476;8.484;2022-08-19T04:16:53;18.27;;;16.75;;
8958;SDS011;4514;49.476;8.484;2022-08-19T04:19:18;20.23;;;18.42;;
8958;SDS011;4514;49.476;8.484;2022-08-19T04:21:45;19.65;;;17.95;;
8958;SDS011;4514;49.476;8.484;2022-08-19T04:24:13;18.60;;;17.08;;
8958;SDS011;4514;49.476;8.484;2022-08-19T04:26:41;19.40;;;17.70;;
8958;SDS011;4514;49.476;8.484;2022-08-19T04:29:08;19.80;;;18.05;;
8958;SDS011;4514;49.476;8.484;2022-08-19T04:31:38;20.83;;;19.13;;
8958;SDS011;4514;49.476;8.484;2022-08-19T04:34:09;21.23;;;19.00;;
8958;SDS011;4514;49.476;8.484;2022-08-19T04:36:36;20.27;;;18.38;;
8958;SDS011;4514;49.476;8.484;2022-08-19T04:39:07;18.27;;;16.58;;
8958;SDS011;4514;49.476;8.484;2022-08-19T04:41:36;19.20;;;17.50;;
8958;SDS011;4514;49.476;8.484;2022-08-19T04:44:20;19.65;;;17.85;;
8958;SDS011;4514;49.476;8.484;2022-08-19T04:46:48;19.35;;;17.55;;
8958;SDS011;4514;49.476;8.484;2022-08-19T04:49:17;18.65;;;16.80;;
8958;SDS011;4514;49.476;8.484;2022-08-19T04:51:45;19.23;;;17.63;;
8958;SDS011;4514;49.476;8.484;2022-08-19T04:54:12;18.67;;;17.17;;
8958;SDS011;4514;49.476;8.484;2022-08-19T04:56:39;16.75;;;15.05;;
8958;SDS011;4514;49.476;8.484;2022-08-19T04:59:07;19.42;;;17.40;;
8958;SDS011;4514;49.476;8.484;2022-08-19T05:01:33;18.33;;;16.73;;
8958;SDS011;4514;49.476;8.484;2022-08-19T05:04:02;18.92;;;17.25;;
8958;SDS011;4514;49.476;8.484;2022-08-19T05:06:31;15.98;;;14.68;;
8958;SDS011;4514;49.476;8.484;2022-08-19T05:09:00;17.08;;;15.63;;
8958;SDS011;4514;49.476;8.484;2022-08-19T05:11:28;16.98;;;15.57;;
8958;SDS011;4514;49.476;8.484;2022-08-19T05:13:57;17.33;;;15.57;;
8958;SDS011;4514;49.476;8.484;2022-08-19T05:16:23;18.40;;;16.77;;
8958;SDS011;4514;49.476;8.484;2022-08-19T05:18:52;18.27;;;16.75;;
8958;SDS011;4514;49.476;8.484;2022-08-19T05:21:36;16.98;;;15.57;;
8958;SDS011;4514;49.476;8.484;2022-08-19T05:24:21;17.42;;;15.82;;
8958;SDS011;4514;49.476;8.484;2022-08-19T05:26:50;17.08;;;15.52;;
8958;SDS011;4514;49.476;8.484;2022-08-19T05:29:24;16.70;;;15.10;;
8958;SDS011;4514;49.476;8.484;2022-08-19T05:31:51;16.55;;;15.07;;
8958;SDS011;4514;49.476;8.484;2022-08-19T05:34:20;16.70;;;15.20;;
8958;SDS011;4514;49.476;8.484;2022-08-19T05:36:49;15.95;;;14.45;;
8958;SDS011;4514;49.476;8.484;2022-08-19T05:39:18;14.90;;;13.60;;
8958;SDS011;4514;49.476;8.484;2022-08-19T05:41:46;16.42;;;15.00;;
8958;SDS011;4514;49.476;8.484;2022-08-19T05:44:15;15.68;;;14.07;;
8958;SDS011;4514;49.476;8.484;2022-08-19T05:46:44;16.88;;;15.27;;
8958;SDS011;4514;49.476;8.484;2022-08-19T05:49:12;18.20;;;14.25;;
8958;SDS011;4514;49.476;8.484;2022-08-19T05:51:37;16.15;;;14.35;;
8958;SDS011;4514;49.476;8.484;2022-08-19T05:54:04;15.47;;;14.03;;
8958;SDS011;4514;49.476;8.484;2022-08-19T05:56:34;15.00;;;13.60;;
8958;SDS011;4514;49.476;8.484;2022-08-19T05:59:06;15.82;;;14.38;;
8958;SDS011;4514;49.476;8.484;2022-08-19T06:01:36;16.05;;;14.40;;
8958;SDS011;4514;49.476;8.484;2022-08-19T06:04:03;16.55;;;14.90;;
8958;SDS011;4514;49.476;8.484;2022-08-19T06:06:31;15.57;;;14.30;;
8958;SDS011;4514;49.476;8.484;2022-08-19T06:08:59;15.02;;;13.43;;
8958;SDS011;4514;49.476;8.484;2022-08-19T06:11:33;16.17;;;14.50;;
8958;SDS011;4514;49.476;8.484;2022-08-19T06:14:09;15.40;;;13.95;;
8958;SDS011;4514;49.476;8.484;2022-08-19T06:16:37;16.80;;;15.20;;
8958;SDS011;4514;49.476;8.484;2022-08-19T06:19:08;16.93;;;15.53;;
8958;SDS011;4514;49.476;8.484;2022-08-19T06:21:37;15.30;;;13.90;;
8958;SDS011;4514;49.476;8.484;2022-08-19T06:24:04;13.82;;;12.55;;
8958;SDS011;4514;49.476;8.484;2022-08-19T06:26:31;14.88;;;13.57;;
8958;SDS011;4514;49.476;8.484;2022-08-19T06:29:00;15.45;;;13.82;;
8958;SDS011;4514;49.476;8.484;2022-08-19T06:31:27;15.40;;;14.05;;
8958;SDS011;4514;49.476;8.484;2022-08-19T06:33:58;14.65;;;13.43;;
8958;SDS011;4514;49.476;8.484;2022-08-19T06:36:33;16.45;;;14.95;;
8958;SDS011;4514;49.476;8.484;2022-08-19T06:39:01;16.92;;;15.23;;
8958;SDS011;4514;49.476;8.484;2022-08-19T06:41:40;13.40;;;12.30;;
8958;SDS011;4514;49.476;8.484;2022-08-19T06:44:07;15.10;;;13.80;;
8958;SDS011;4514;49.476;8.484;2022-08-19T06:46:33;14.07;;;12.40;;
8958;SDS011;4514;49.476;8.484;2022-08-19T06:48:59;14.60;;;13.30;;
8958;SDS011;4514;49.476;8.484;2022-08-19T06:51:24;13.77;;;12.68;;
8958;SDS011;4514;49.476;8.484;2022-08-19T06:53:54;15.95;;;14.27;;
8958;SDS011;4514;49.476;8.484;2022-08-19T06:56:21;13.85;;;12.45;;
8958;SDS011;4514;49.476;8.484;2022-08-19T06:58:51;14.52;;;13.23;;
8958;SDS011;4514;49.476;8.484;2022-08-19T07:01:19;13.75;;;12.40;;
8958;SDS011;4514;49.476;8.484;2022-08-19T07:03:47;13.32;;;12.02;;
8958;SDS011;4514;49.476;8.484;2022-08-19T07:06:18;12.50;;;11.50;;
8958;SDS011;4514;49.476;8.484;2022-08-19T07:08:47;14.02;;;12.60;;
8958;SDS011;4514;49.476;8.484;2022-08-19T07:11:14;13.35;;;12.15;;
8958;SDS011;4514;49.476;8.484;2022-08-19T07:13:42;14.10;;;12.75;;
8958;SDS011;4514;49.476;8.484;2022-08-19T07:16:09;12.43;;;11.30;;
8958;SDS011;4514;49.476;8.484;2022-08-19T07:18:42;12.40;;;11.15;;
8958;SDS011;4514;49.476;8.484;2022-08-19T07:21:13;13.18;;;12.10;;
8958;SDS011;4514;49.476;8.484;2022-08-19T07:23:44;14.05;;;12.68;;
8958;SDS011;4514;49.476;8.484;2022-08-19T07:26:17;13.18;;;11.98;;
8958;SDS011;4514;49.476;8.484;2022-08-19T07:28:48;12.88;;;11.63;;
8958;SDS011;4514;49.476;8.484;2022-08-19T07:31:15;12.55;;;11.27;;
8958;SDS011;4514;49.476;8.484;2022-08-19T07:33:43;11.52;;;10.63;;
8958;SDS011;4514;49.476;8.484;2022-08-19T07:36:09;12.68;;;10.82;;
8958;SDS011;4514;49.476;8.484;2022-08-19T07:38:37;11.57;;;10.52;;
8958;SDS011;4514;49.476;8.484;2022-08-19T07:41:04;11.55;;;10.18;;
8958;SDS011;4514;49.476;8.484;2022-08-19T07:43:32;12.05;;;11.05;;
8958;SDS011;4514;49.476;8.484;2022-08-19T07:45:58;12.98;;;11.57;;
8958;SDS011;4514;49.476;8.484;2022-08-19T07:48:24;12.43;;;11.23;;
8958;SDS011;4514;49.476;8.484;2022-08-19T07:51:09;11.43;;;9.85;;
8958;SDS011;4514;49.476;8.484;2022-08-19T07:53:38;11.55;;;10.45;;
8958;SDS011;4514;49.476;8.484;2022-08-19T07:56:03;11.90;;;10.70;;
8958;SDS011;4514;49.476;8.484;2022-08-19T07:58:30;12.15;;;11.05;;
8958;SDS011;4514;49.476;8.484;2022-08-19T08:01:03;9.15;;;8.45;;
8958;SDS011;4514;49.476;8.484;2022-08-19T08:03:31;10.98;;;9.93;;
8958;SDS011;4514;49.476;8.484;2022-08-19T08:06:16;10.00;;;9.20;;
8958;SDS011;4514;49.476;8.484;2022-08-19T08:09:00;10.32;;;9.32;;
8958;SDS011;4514;49.476;8.484;2022-08-19T08:11:42;11.18;;;10.18;;
8958;SDS011;4514;49.476;8.484;2022-08-19T08:14:17;10.73;;;9.75;;
8958;SDS011;4514;49.476;8.484;2022-08-19T08:16:48;10.02;;;9.10;;
8958;SDS011;4514;49.476;8.484;2022-08-19T08:19:15;9.80;;;9.00;;
8958;SDS011;4514;49.476;8.484;2022-08-19T08:21:41;10.90;;;9.80;;
8958;SDS011;4514;49.476;8.484;2022-08-19T08:24:09;8.75;;;7.95;;
8958;SDS011;4514;49.476;8.484;2022-08-19T08:26:35;10.00;;;9.10;;
8958;SDS011;4514;49.476;8.484;2022-08-19T08:29:03;11.13;;;8.05;;
8958;SDS011;4514;49.476;8.484;2022-08-19T08:31:28;9.27;;;8.27;;
8958;SDS011;4514;49.476;8.484;2022-08-19T08:33:54;8.68;;;7.95;;
8958;SDS011;4514;49.476;8.484;2022-08-19T08:36:22;9.77;;;8.77;;
8958;SDS011;4514;49.476;8.484;2022-08-19T08:38:49;8.48;;;7.70;;
8958;SDS011;4514;49.476;8.484;2022-08-19T08:41:17;7.63;;;6.93;;
8958;SDS011;4514;49.476;8.484;2022-08-19T08:43:45;6.18;;;5.68;;
8958;SDS011;4514;49.476;8.484;2022-08-19T08:46:18;7.30;;;6.65;;
8958;SDS011;4514;49.476;8.484;2022-08-19T08:51:38;7.63;;;6.65;;
8958;SDS011;4514;49.476;8.484;2022-08-19T08:54:11;7.43;;;6.82;;
8958;SDS011;4514;49.476;8.484;2022-08-19T08:56:41;7.40;;;6.70;;
8958;SDS011;4514;49.476;8.484;2022-08-19T08:59:10;7.53;;;6.82;;
8958;SDS011;4514;49.476;8.484;2022-08-19T09:01:57;6.78;;;6.10;;
8958;SDS011;4514;49.476;8.484;2022-08-19T09:04:23;6.85;;;6.35;;
8958;SDS011;4514;49.476;8.484;2022-08-19T09:09:30;11.27;;;8.15;;
8958;SDS011;4514;49.476;8.484;2022-08-19T09:12:10;7.43;;;6.82;;
8958;SDS011;4514;49.476;8.484;2022-08-19T09:17:30;8.70;;;7.82;;
8958;SDS011;4514;49.476;8.484;2022-08-19T09:20:02;8.40;;;7.70;;
8958;SDS011;4514;49.476;8.484;2022-08-19T09:22:43;7.68;;;6.97;;
8958;SDS011;4514;49.476;8.484;2022-08-19T09:25:09;7.75;;;6.95;;
8958;SDS011;4514;49.476;8.484;2022-08-19T09:27:37;8.00;;;7.25;;
8958;SDS011;4514;49.476;8.484;2022-08-19T09:30:03;8.68;;;7.40;;
8958;SDS011;4514;49.476;8.484;2022-08-19T09:32:30;7.40;;;6.80;;
8958;SDS011;4514;49.476;8.484;2022-08-19T09:34:56;7.50;;;6.80;;
8958;SDS011;4514;49.476;8.484;2022-08-19T09:37:25;7.05;;;6.45;;
8958;SDS011;4514;49.476;8.484;2022-08-19T09:39:50;8.23;;;7.43;;
8958;SDS011;4514;49.476;8.484;2022-08-19T09:42:16;10.57;;;8.65;;
8958;SDS011;4514;49.476;8.484;2022-08-19T09:44:44;8.48;;;7.80;;
8958;SDS011;4514;49.476;8.484;2022-08-19T09:47:11;9.30;;;7.78;;
8958;SDS011;4514;49.476;8.484;2022-08-19T09:49:40;9.02;;;7.95;;
8958;SDS011;4514;49.476;8.484;2022-08-19T09:52:08;7.53;;;6.93;;
8958;SDS011;4514;49.476;8.484;2022-08-19T09:54:34;7.63;;;6.47;;
8958;SDS011;4514;49.476;8.484;2022-08-19T09:57:02;8.13;;;7.40;;
8958;SDS011;4514;49.476;8.484;2022-08-19T09:59:28;8.43;;;7.05;;
8958;SDS011;4514;49.476;8.484;2022-08-19T10:01:54;9.20;;;6.63;;
8958;SDS011;4514;49.476;8.484;2022-08-19T10:04:19;7.90;;;7.10;;
8958;SDS011;4514;49.476;8.484;2022-08-19T10:06:48;9.00;;;7.75;;
8958;SDS011;4514;49.476;8.484;2022-08-19T10:09:18;7.55;;;6.85;;
8958;SDS011;4514;49.476;8.484;2022-08-19T10:11:44;7.68;;;6.88;;
8958;SDS011;4514;49.476;8.484;2022-08-19T10:14:14;8.45;;;6.60;;
8958;SDS011;4514;49.476;8.484;2022-08-19T10:16:41;8.43;;;7.63;;
8958;SDS011;4514;49.476;8.484;2022-08-19T10:19:09;7.68;;;7.03;;
8958;SDS011;4514;49.476;8.484;2022-08-19T10:21:37;7.80;;;7.10;;
8958;SDS011;4514;49.476;8.484;2022-08-19T10:24:05;7.47;;;6.68;;
8958;SDS011;4514;49.476;8.484;2022-08-19T10:26:33;6.38;;;5.88;;
8958;SDS011;4514;49.476;8.484;2022-08-19T10:29:03;7.47;;;6.78;;
8958;SDS011;4514;49.476;8.484;2022-08-19T10:31:31;8.48;;;7.05;;
8958;SDS011;4514;49.476;8.484;2022-08-19T10:33:57;7.07;;;6.38;;
8958;SDS011;4514;49.476;8.484;2022-08-19T10:36:27;7.65;;;7.00;;
8958;SDS011;4514;49.476;8.484;2022-08-19T10:38:58;8.50;;;7.70;;
8958;SDS011;4514;49.476;8.484;2022-08-19T10:41:28;8.07;;;7.35;;
8958;SDS011;4514;49.476;8.484;2022-08-19T10:43:56;8.80;;;8.10;;
8958;SDS011;4514;49.476;8.484;2022-08-19T10:46:28;8.07;;;7.38;;
8958;SDS011;4514;49.476;8.484;2022-08-19T10:48:57;9.73;;;8.93;;
8958;SDS011;4514;49.476;8.484;2022-08-19T10:51:23;9.15;;;8.30;;
8958;SDS011;4514;49.476;8.484;2022-08-19T10:54:10;9.48;;;8.55;;
8958;SDS011;4514;49.476;8.484;2022-08-19T10:56:37;9.43;;;8.23;;
8958;SDS011;4514;49.476;8.484;2022-08-19T10:59:21;8.32;;;7.68;;
8958;SDS011;4514;49.476;8.484;2022-08-19T11:01:51;9.50;;;8.63;;
8958;SDS011;4514;49.476;8.484;2022-08-19T11:04:19;7.28;;;6.78;;
8958;SDS011;4514;49.476;8.484;2022-08-19T11:06:44;8.95;;;8.15;;
8958;SDS011;4514;49.476;8.484;2022-08-19T11:09:15;8.35;;;7.57;;
8958;SDS011;4514;49.476;8.484;2022-08-19T11:11:44;7.90;;;7.13;;
8958;SDS011;4514;49.476;8.484;2022-08-19T11:14:11;9.50;;;8.80;;
8958;SDS011;4514;49.476;8.484;2022-08-19T11:16:39;9.32;;;8.63;;
8958;SDS011;4514;49.476;8.484;2022-08-19T11:19:05;9.32;;;8.63;;
8958;SDS011;4514;49.476;8.484;2022-08-19T11:21:33;8.80;;;8.10;;
8958;SDS011;4514;49.476;8.484;2022-08-19T11:24:05;9.05;;;8.20;;
8958;SDS011;4514;49.476;8.484;2022-08-19T11:26:32;8.18;;;7.47;;
8958;SDS011;4514;49.476;8.484;2022-08-19T11:29:02;7.90;;;7.10;;
8958;SDS011;4514;49.476;8.484;2022-08-19T11:31:29;7.25;;;6.45;;
8958;SDS011;4514;49.476;8.484;2022-08-19T11:33:57;6.30;;;5.80;;
8958;SDS011;4514;49.476;8.484;2022-08-19T11:36:28;7.25;;;5.80;;
8958;SDS011;4514;49.476;8.484;2022-08-19T11:38:53;6.18;;;5.68;;
8958;SDS011;4514;49.476;8.484;2022-08-19T11:41:22;6.82;;;6.18;;
8958;SDS011;4514;49.476;8.484;2022-08-19T11:43:48;7.35;;;6.78;;
8958;SDS011;4514;49.476;8.484;2022-08-19T11:46:19;7.25;;;6.68;;
8958;SDS011;4514;49.476;8.484;2022-08-19T11:48:45;7.32;;;6.68;;
8958;SDS011;4514;49.476;8.484;2022-08-19T11:51:17;6.60;;;6.20;;
8958;SDS011;4514;49.476;8.484;2022-08-19T11:53:44;7.20;;;6.70;;
8958;SDS011;4514;49.476;8.484;2022-08-19T11:56:11;7.78;;;6.97;;
8958;SDS011;4514;49.476;8.484;2022-08-19T11:58:40;7.80;;;7.15;;
8958;SDS011;4514;49.476;8.484;2022-08-19T12:01:09;6.90;;;6.40;;
8958;SDS011;4514;49.476;8.484;2022-08-19T12:03:40;6.90;;;6.30;;
8958;SDS011;4514;49.476;8.484;2022-08-19T12:06:09;7.00;;;6.50;;
8958;SDS011;4514;49.476;8.484;2022-08-19T12:08:38;7.10;;;6.40;;
8958;SDS011;4514;49.476;8.484;2022-08-19T12:11:06;6.80;;;6.20;;
8958;SDS011;4514;49.476;8.484;2022-08-19T12:13:35;7.07;;;6.40;;
8958;SDS011;4514;49.476;8.484;2022-08-19T12:16:13;6.60;;;6.00;;
8958;SDS011;4514;49.476;8.484;2022-08-19T12:18:43;5.78;;;5.28;;
8958;SDS011;4514;49.476;8.484;2022-08-19T12:21:11;5.63;;;5.13;;
8958;SDS011;4514;49.476;8.484;2022-08-19T12:23:40;6.50;;;5.93;;
8958;SDS011;4514;49.476;8.484;2022-08-19T12:26:10;6.18;;;5.75;;
8958;SDS011;4514;49.476;8.484;2022-08-19T12:28:35;6.63;;;6.00;;
8958;SDS011;4514;49.476;8.484;2022-08-19T12:31:01;6.43;;;5.93;;
8958;SDS011;4514;49.476;8.484;2022-08-19T12:33:26;6.00;;;5.50;;
8958;SDS011;4514;49.476;8.484;2022-08-19T12:35:53;6.00;;;5.60;;
8958;SDS011;4514;49.476;8.484;2022-08-19T12:38:24;6.30;;;5.90;;
8958;SDS011;4514;49.476;8.484;2022-08-19T12:40:49;6.38;;;5.80;;
8958;SDS011;4514;49.476;8.484;2022-08-19T12:43:19;6.43;;;5.93;;
8958;SDS011;4514;49.476;8.484;2022-08-19T12:45:47;5.95;;;5.45;;
8958;SDS011;4514;49.476;8.484;2022-08-19T12:48:14;5.40;;;4.97;;
8958;SDS011;4514;49.476;8.484;2022-08-19T12:50:40;5.80;;;5.25;;
8958;SDS011;4514;49.476;8.484;2022-08-19T12:53:06;5.90;;;5.30;;
8958;SDS011;4514;49.476;8.484;2022-08-19T12:55:34;5.65;;;5.20;;
8958;SDS011;4514;49.476;8.484;2022-08-19T12:57:59;4.93;;;4.55;;
8958;SDS011;4514;49.476;8.484;2022-08-19T13:00:26;5.78;;;5.28;;
8958;SDS011;4514;49.476;8.484;2022-08-19T13:02:52;5.93;;;5.43;;
8958;SDS011;4514;49.476;8.484;2022-08-19T13:05:22;6.88;;;5.63;;
8958;SDS011;4514;49.476;8.484;2022-08-19T13:07:52;5.97;;;5.47;;
8958;SDS011;4514;49.476;8.484;2022-08-19T13:10:21;6.03;;;5.43;;
8958;SDS011;4514;49.476;8.484;2022-08-19T13:12:48;6.13;;;5.50;;
8958;SDS011;4514;49.476;8.484;2022-08-19T13:15:14;6.20;;;5.70;;
8958;SDS011;4514;49.476;8.484;2022-08-19T13:17:45;5.82;;;5.25;;
8958;SDS011;4514;49.476;8.484;2022-08-19T13:20:14;5.55;;;5.05;;
8958;SDS011;4514;49.476;8.484;2022-08-19T13:22:40;5.68;;;5.28;;
8958;SDS011;4514;49.476;8.484;2022-08-19T13:25:09;5.97;;;5.47;;
8958;SDS011;4514;49.476;8.484;2022-08-19T13:27:38;6.25;;;5.75;;
8958;SDS011;4514;49.476;8.484;2022-08-19T13:30:06;6.93;;;5.75;;
8958;SDS011;4514;49.476;8.484;2022-08-19T13:32:51;6.03;;;5.53;;
8958;SDS011;4514;49.476;8.484;2022-08-19T13:35:35;6.05;;;5.45;;
8958;SDS011;4514;49.476;8.484;2022-08-19T13:38:00;7.30;;;5.53;;
8958;SDS011;4514;49.476;8.484;2022-08-19T13:40:30;6.20;;;5.72;;
8958;SDS011;4514;49.476;8.484;2022-08-19T13:42:59;5.88;;;5.20;;
8958;SDS011;4514;49.476;8.484;2022-08-19T13:45:26;5.78;;;5.28;;
8958;SDS011;4514;49.476;8.484;2022-08-19T13:47:56;5.80;;;5.40;;
8958;SDS011;4514;49.476;8.484;2022-08-19T13:50:25;6.15;;;5.65;;
8958;SDS011;4514;49.476;8.484;2022-08-19T13:52:56;6.13;;;5.43;;
8958;SDS011;4514;49.476;8.484;2022-08-19T13:55:24;6.07;;;5.18;;
8958;SDS011;4514;49.476;8.484;2022-08-19T13:57:55;6.22;;;5.68;;
8958;SDS011;4514;49.476;8.484;2022-08-19T14:00:22;5.55;;;5.18;;
8958;SDS011;4514;49.476;8.484;2022-08-19T14:02:54;5.35;;;4.93;;
8958;SDS011;4514;49.476;8.484;2022-08-19T14:05:20;6.30;;;5.70;;
8958;SDS011;4514;49.476;8.484;2022-08-19T14:07:46;5.82;;;5.30;;
8958;SDS011;4514;49.476;8.484;2022-08-19T14:10:15;5.60;;;5.20;;
8958;SDS011;4514;49.476;8.484;2022-08-19T14:12:44;5.72;;;5.22;;
8958;SDS011;4514;49.476;8.484;2022-08-19T14:15:12;6.20;;;5.63;;
8958;SDS011;4514;49.476;8.484;2022-08-19T14:17:39;5.53;;;5.03;;
8958;SDS011;4514;49.476;8.484;2022-08-19T14:20:09;5.35;;;4.85;;
8958;SDS011;4514;49.476;8.484;2022-08-19T14:22:40;4.70;;;4.40;;
8958;SDS011;4514;49.476;8.484;2022-08-19T14:25:07;4.72;;;4.30;;
8958;SDS011;4514;49.476;8.484;2022-08-19T14:27:34;4.57;;;4.20;;
8958;SDS011;4514;49.476;8.484;2022-08-19T14:30:03;4.78;;;4.38;;
8958;SDS011;4514;49.476;8.484;2022-08-19T14:32:31;4.65;;;4.32;;
8958;SDS011;4514;49.476;8.484;2022-08-19T14:35:00;4.65;;;4.30;;
8958;SDS011;4514;49.476;8.484;2022-08-19T14:37:26;5.35;;;4.30;;
8958;SDS011;4514;49.476;8.484;2022-08-19T14:39:51;4.43;;;4.13;;
8958;SDS011;4514;49.476;8.484;2022-08-19T14:42:18;4.32;;;3.92;;
8958;SDS011;4514;49.476;8.484;2022-08-19T14:44:43;5.00;;;4.57;;
8958;SDS011;4514;49.476;8.484;2022-08-19T14:47:08;5.63;;;4.20;;
8958;SDS011;4514;49.476;8.484;2022-08-19T14:49:34;6.18;;;4.55;;
8958;SDS011;4514;49.476;8.484;2022-08-19T14:52:00;4.75;;;4.35;;
8958;SDS011;4514;49.476;8.484;2022-08-19T14:54:28;5.68;;;4.55;;
8958;SDS011;4514;49.476;8.484;2022-08-19T14:56:53;4.72;;;4.28;;
8958;SDS011;4514;49.476;8.484;2022-08-19T14:59:21;4.53;;;4.22;;
8958;SDS011;4514;49.476;8.484;2022-08-19T15:01:51;4.20;;;3.80;;
8958;SDS011;4514;49.476;8.484;2022-08-19T15:04:19;4.68;;;4.20;;
8958;SDS011;4514;49.476;8.484;2022-08-19T15:06:47;4.50;;;4.10;;
8958;SDS011;4514;49.476;8.484;2022-08-19T15:09:18;4.40;;;4.07;;
8958;SDS011;4514;49.476;8.484;2022-08-19T15:11:46;6.38;;;5.88;;
8958;SDS011;4514;49.476;8.484;2022-08-19T15:14:12;7.38;;;6.47;;
8958;SDS011;4514;49.476;8.484;2022-08-19T15:16:38;5.65;;;4.47;;
8958;SDS011;4514;49.476;8.484;2022-08-19T15:19:06;9.93;;;8.05;;
8958;SDS011;4514;49.476;8.484;2022-08-19T15:21:32;7.13;;;6.47;;